createdAt,value
2024-01-24T00:01:36.375Z,75.70
2024-01-24T00:04:03.270Z,68.28
2024-01-24T00:06:29.985Z,33.78
2024-01-24T00:08:56.696Z,24.80
2024-01-24T00:11:23.401Z,25.63
2024-01-24T00:13:49.998Z,17.67
2024-01-24T00:16:16.655Z,17.02
2024-01-24T00:18:43.341Z,21.58
2024-01-24T00:21:09.910Z,21.30
2024-01-24T00:23:36.525Z,16.85
2024-01-24T00:26:03.106Z,20.10
2024-01-24T00:28:29.829Z,25.35
2024-01-24T00:30:56.722Z,18.42
2024-01-24T00:33:25.395Z,19.80
2024-01-24T00:35:52.014Z,20.98
2024-01-24T00:38:18.573Z,18.55
2024-01-24T00:40:45.239Z,24.77
2024-01-24T00:43:11.984Z,27.65
2024-01-24T00:45:38.601Z,35.20
2024-01-24T00:48:05.758Z,30.55
2024-01-24T00:50:32.401Z,34.15
2024-01-24T00:53:15.056Z,33.25
2024-01-24T00:55:41.640Z,42.60
2024-01-24T00:58:08.271Z,43.95
2024-01-24T01:00:34.916Z,44.95
2024-01-24T01:03:01.587Z,27.02
2024-01-24T01:05:28.192Z,32.10
2024-01-24T01:07:54.784Z,23.98
2024-01-24T01:10:21.424Z,20.25
2024-01-24T01:12:48.130Z,18.60
2024-01-24T01:15:14.837Z,13.80
2024-01-24T01:17:41.668Z,14.82
2024-01-24T01:20:08.407Z,14.98
2024-01-24T01:22:34.983Z,15.35
2024-01-24T01:25:01.738Z,11.70
2024-01-24T01:27:28.405Z,11.00
2024-01-24T01:29:54.997Z,11.73
2024-01-24T01:32:21.631Z,9.63
2024-01-24T01:34:48.269Z,8.95
2024-01-24T01:37:14.859Z,8.02
2024-01-24T01:39:41.610Z,8.35
2024-01-24T01:42:08.384Z,14.23
2024-01-24T01:44:47.374Z,11.43
2024-01-24T01:47:18.030Z,13.98
2024-01-24T01:49:46.358Z,17.23
2024-01-24T01:52:13.837Z,14.82
2024-01-24T01:54:43.114Z,18.33
2024-01-24T01:57:10.335Z,14.13
2024-01-24T01:59:37.701Z,18.92
2024-01-24T02:02:04.887Z,14.48
2024-01-24T02:04:31.857Z,11.88
2024-01-24T02:06:58.946Z,17.85
2024-01-24T02:09:26.041Z,18.60
2024-01-24T02:11:52.657Z,41.22
2024-01-24T02:14:19.339Z,33.70
2024-01-24T02:16:46.033Z,22.45
2024-01-24T02:19:12.673Z,23.70
2024-01-24T02:21:39.326Z,19.42
2024-01-24T02:24:12.809Z,17.88
2024-01-24T02:26:40.096Z,12.98
2024-01-24T02:29:07.007Z,11.30
2024-01-24T02:31:33.581Z,13.68
2024-01-24T02:34:00.289Z,14.10
2024-01-24T02:36:27.090Z,16.52
2024-01-24T02:38:55.605Z,16.13
2024-01-24T02:41:23.570Z,12.50
2024-01-24T02:43:50.124Z,11.30
2024-01-24T02:46:16.784Z,10.23
2024-01-24T02:48:43.460Z,9.63
2024-01-24T02:51:10.180Z,7.18
2024-01-24T02:53:36.792Z,9.10
2024-01-24T02:56:03.556Z,7.75
2024-01-24T02:58:30.232Z,10.65
2024-01-24T03:00:56.934Z,9.07
2024-01-24T03:03:23.553Z,8.15
2024-01-24T03:05:50.235Z,15.82
2024-01-24T03:08:16.791Z,15.55
2024-01-24T03:10:43.349Z,21.52
2024-01-24T03:13:10.046Z,19.50
2024-01-24T03:15:36.734Z,14.40
2024-01-24T03:18:03.669Z,22.15
2024-01-24T03:20:30.468Z,13.73
2024-01-24T03:22:57.042Z,17.00
2024-01-24T03:25:23.606Z,22.30
2024-01-24T03:27:50.232Z,17.77
2024-01-24T03:30:17.056Z,13.77
2024-01-24T03:32:43.780Z,13.13
2024-01-24T03:35:10.476Z,11.52
2024-01-24T03:37:37.191Z,12.70
2024-01-24T03:40:03.979Z,16.70
2024-01-24T03:42:32.752Z,17.55
2024-01-24T03:44:59.364Z,17.60
2024-01-24T03:47:26.752Z,22.45
2024-01-24T03:49:53.440Z,24.38
2024-01-24T03:52:20.127Z,39.42
2024-01-24T03:54:46.734Z,41.90
2024-01-24T03:57:13.359Z,61.65
2024-01-24T03:59:40.029Z,57.33
2024-01-24T04:02:07.936Z,80.93
2024-01-24T04:04:35.695Z,62.03
2024-01-24T04:07:02.598Z,34.63
2024-01-24T04:09:29.270Z,38.88
2024-01-24T04:11:55.926Z,33.15
2024-01-24T04:14:22.607Z,35.95
2024-01-24T04:16:49.187Z,33.92
2024-01-24T04:19:15.927Z,37.80
2024-01-24T04:21:43.563Z,35.58
2024-01-24T04:24:10.164Z,27.40
2024-01-24T04:26:36.822Z,29.60
2024-01-24T04:29:03.479Z,41.05
2024-01-24T04:31:30.396Z,59.25
2024-01-24T04:33:57.105Z,85.30
2024-01-24T04:36:23.812Z,56.83
2024-01-24T04:38:50.446Z,56.30
2024-01-24T04:41:17.158Z,70.22
2024-01-24T04:43:43.902Z,69.28
2024-01-24T04:46:14.541Z,70.93
2024-01-24T04:48:42.761Z,186.40
2024-01-24T04:51:09.390Z,95.82
2024-01-24T04:53:36.672Z,112.30
2024-01-24T04:56:03.941Z,158.02
2024-01-24T04:58:30.578Z,124.13
2024-01-24T05:00:57.364Z,123.25
2024-01-24T05:03:24.648Z,149.15
2024-01-24T05:05:58.225Z,180.57
2024-01-24T05:08:28.078Z,131.20
2024-01-24T05:10:54.683Z,136.52
2024-01-24T05:13:21.252Z,116.63
2024-01-24T05:15:47.920Z,104.22
2024-01-24T05:18:14.620Z,95.30
2024-01-24T05:20:41.309Z,124.97
2024-01-24T05:23:07.860Z,159.73
2024-01-24T05:25:34.850Z,154.10
2024-01-24T05:28:03.014Z,194.50
2024-01-24T05:30:35.392Z,223.73
2024-01-24T05:33:03.492Z,235.65
2024-01-24T05:35:30.158Z,207.48
2024-01-24T05:37:57.475Z,221.40
2024-01-24T05:40:24.046Z,210.75
2024-01-24T05:42:53.182Z,203.65
2024-01-24T05:45:20.676Z,185.90
2024-01-24T05:47:47.426Z,199.38
2024-01-24T05:50:14.871Z,212.88
2024-01-24T05:52:45.094Z,220.20
2024-01-24T05:55:14.464Z,192.52
2024-01-24T05:57:42.534Z,216.82
2024-01-24T06:00:11.549Z,215.77
2024-01-24T06:02:38.382Z,214.52
2024-01-24T06:05:05.628Z,218.05
2024-01-24T06:07:32.923Z,220.80
2024-01-24T06:09:59.851Z,228.68
2024-01-24T06:12:26.642Z,216.73
2024-01-24T06:14:53.612Z,218.60
2024-01-24T06:17:20.204Z,208.45
2024-01-24T06:19:46.791Z,210.48
2024-01-24T06:22:13.592Z,226.88
2024-01-24T06:24:40.209Z,231.93
2024-01-24T06:27:06.897Z,300.20
2024-01-24T06:30:15.785Z,287.02
2024-01-24T06:32:20.025Z,292.67
2024-01-24T06:34:46.699Z,256.60
2024-01-24T06:37:13.388Z,239.15
2024-01-24T06:39:40.056Z,270.65
2024-01-24T06:42:06.817Z,245.82
2024-01-24T06:44:33.427Z,237.80
2024-01-24T06:47:00.071Z,252.63
2024-01-24T06:49:26.956Z,334.88
2024-01-24T06:51:53.654Z,378.40
2024-01-24T06:54:20.338Z,320.67
2024-01-24T06:56:46.972Z,309.88
2024-01-24T06:59:13.604Z,289.83
2024-01-24T07:01:40.358Z,330.55
2024-01-24T07:04:07.135Z,355.33
2024-01-24T07:06:33.835Z,324.42
2024-01-24T07:09:00.474Z,220.90
2024-01-24T07:11:27.118Z,274.95
2024-01-24T07:13:53.721Z,211.25
2024-01-24T07:16:20.337Z,194.63
2024-01-24T07:18:47.138Z,188.48
2024-01-24T07:21:15.181Z,175.80
2024-01-24T07:23:41.733Z,174.15
2024-01-24T07:26:08.345Z,154.38
2024-01-24T07:28:34.964Z,135.02
2024-01-24T07:31:01.644Z,128.50
2024-01-24T07:33:28.384Z,134.90
2024-01-24T07:35:55.437Z,112.32
2024-01-24T07:38:21.981Z,105.35
2024-01-24T07:40:48.582Z,110.35
2024-01-24T07:43:15.220Z,105.53
2024-01-24T07:45:42.927Z,114.80
2024-01-24T07:48:09.669Z,108.80
2024-01-24T07:50:36.313Z,119.63
2024-01-24T07:53:02.951Z,127.45
2024-01-24T07:55:36.918Z,133.35
2024-01-24T07:58:14.638Z,138.13
2024-01-24T08:00:42.175Z,125.45
2024-01-24T08:03:08.885Z,261.38
2024-01-24T08:05:35.666Z,308.42
2024-01-24T08:08:04.248Z,357.50
2024-01-24T08:10:30.878Z,293.98
2024-01-24T08:12:58.036Z,354.08
2024-01-24T08:15:24.684Z,327.42
2024-01-24T08:17:51.322Z,204.55
2024-01-24T08:20:17.958Z,200.95
2024-01-24T08:22:44.487Z,163.43
2024-01-24T08:25:11.063Z,158.02
2024-01-24T08:27:37.773Z,136.98
2024-01-24T08:30:05.106Z,48.67
2024-01-24T08:32:31.737Z,56.60
2024-01-24T08:34:58.603Z,49.58
2024-01-24T08:37:25.171Z,54.08
2024-01-24T08:39:51.919Z,49.25
2024-01-24T08:42:18.621Z,22.95
2024-01-24T08:44:45.179Z,17.42
2024-01-24T08:47:11.714Z,46.47
2024-01-24T08:49:38.379Z,50.25
2024-01-24T08:52:05.460Z,43.55
2024-01-24T08:54:32.227Z,39.75
2024-01-24T08:56:58.973Z,30.98
2024-01-24T08:59:25.886Z,55.90
2024-01-24T09:01:52.560Z,90.82
2024-01-24T09:04:19.330Z,74.80
2024-01-24T09:06:46.072Z,86.25
2024-01-24T09:09:13.304Z,30.13
2024-01-24T09:11:46.200Z,34.67
2024-01-24T09:14:21.243Z,44.67
2024-01-24T09:16:48.063Z,35.25
2024-01-24T09:19:14.751Z,25.60
2024-01-24T09:21:41.602Z,19.27
2024-01-24T09:24:08.538Z,22.02
2024-01-24T09:26:36.145Z,21.70
2024-01-24T09:29:02.913Z,20.27
2024-01-24T09:31:30.397Z,19.33
2024-01-24T09:33:57.204Z,31.67
2024-01-24T09:36:23.923Z,33.92
2024-01-24T09:38:50.803Z,35.30
2024-01-24T09:41:18.414Z,35.83
2024-01-24T09:43:46.937Z,27.65
2024-01-24T09:46:15.699Z,17.23
2024-01-24T09:48:45.085Z,12.88
2024-01-24T09:51:12.496Z,18.50
2024-01-24T09:53:45.830Z,13.70
2024-01-24T09:56:13.979Z,29.65
2024-01-24T09:58:40.642Z,17.83
2024-01-24T10:01:12.419Z,19.48
2024-01-24T10:03:40.046Z,12.27
2024-01-24T10:06:09.789Z,6.05
2024-01-24T10:08:36.513Z,46.08
2024-01-24T10:11:03.141Z,24.50
2024-01-24T10:13:31.370Z,22.05
2024-01-24T10:15:59.530Z,14.05
2024-01-24T10:18:26.633Z,17.08
2024-01-24T10:20:55.101Z,11.60
2024-01-24T10:23:22.532Z,13.15
2024-01-24T10:28:16.520Z,11.27
2024-01-24T10:30:43.832Z,15.05
2024-01-24T10:33:15.766Z,18.85
2024-01-24T10:35:43.864Z,16.27
2024-01-24T10:40:41.604Z,19.27
2024-01-24T10:43:13.823Z,22.77
2024-01-24T10:45:45.715Z,14.75
2024-01-24T10:48:12.855Z,22.05
2024-01-24T10:50:40.006Z,18.48
2024-01-24T10:53:09.432Z,10.68
2024-01-24T10:55:37.960Z,12.13
2024-01-24T10:58:06.069Z,17.52
2024-01-24T11:00:35.000Z,24.48
2024-01-24T11:03:01.921Z,21.17
2024-01-24T11:05:41.044Z,21.90
2024-01-24T11:08:40.176Z,31.67
2024-01-24T11:11:13.674Z,27.00
2024-01-24T11:13:40.754Z,25.27
2024-01-24T11:16:29.984Z,12.55
2024-01-24T11:19:00.875Z,16.92
2024-01-24T11:21:33.491Z,23.08
2024-01-24T11:24:00.444Z,15.45
2024-01-24T11:26:27.085Z,31.77
2024-01-24T11:29:05.971Z,16.00
2024-01-24T11:31:42.853Z,25.83
2024-01-24T11:34:11.643Z,16.83
2024-01-24T11:36:55.164Z,15.00
2024-01-24T11:39:42.193Z,14.82
2024-01-24T11:42:27.258Z,34.17
2024-01-24T11:44:54.285Z,13.23
2024-01-24T11:47:22.372Z,8.85
2024-01-24T11:49:50.121Z,10.15
2024-01-24T11:52:21.604Z,14.43
2024-01-24T11:54:52.261Z,18.90
2024-01-24T11:57:19.178Z,28.45
2024-01-24T11:59:46.043Z,30.70
2024-01-24T12:02:12.786Z,35.00
2024-01-24T12:04:39.595Z,21.67
2024-01-24T12:07:08.246Z,34.63
2024-01-24T12:09:34.923Z,19.00
2024-01-24T12:12:01.568Z,17.75
2024-01-24T12:14:28.471Z,16.70
2024-01-24T12:16:55.692Z,10.63
2024-01-24T12:19:22.494Z,42.13
2024-01-24T12:24:17.769Z,17.23
2024-01-24T12:26:44.474Z,14.55
2024-01-24T12:29:11.783Z,20.88
2024-01-24T12:31:38.518Z,26.92
2024-01-24T12:34:08.343Z,28.77
2024-01-24T12:36:35.082Z,27.63
2024-01-24T12:39:01.810Z,15.68
2024-01-24T12:41:28.816Z,31.38
2024-01-24T12:43:57.007Z,35.45
2024-01-24T12:46:24.017Z,45.85
2024-01-24T12:48:50.760Z,39.38
2024-01-24T12:51:17.401Z,30.00
2024-01-24T12:53:44.122Z,50.88
2024-01-24T12:56:10.793Z,44.55
2024-01-24T12:58:37.436Z,75.97
2024-01-24T13:01:04.230Z,46.60
2024-01-24T13:03:32.136Z,109.05
2024-01-24T13:05:59.717Z,118.10
2024-01-24T13:08:26.805Z,213.98
2024-01-24T13:10:53.789Z,199.13
2024-01-24T13:13:20.689Z,107.75
2024-01-24T13:15:47.574Z,149.77
2024-01-24T13:18:14.237Z,26.50
2024-01-24T13:20:40.836Z,20.90
2024-01-24T13:23:07.552Z,35.65
2024-01-24T13:25:34.182Z,94.53
2024-01-24T13:28:00.992Z,74.20
2024-01-24T13:30:28.762Z,28.40
2024-01-24T13:32:55.928Z,29.70
2024-01-24T13:35:22.726Z,27.95
2024-01-24T13:37:49.785Z,30.55
2024-01-24T13:40:17.542Z,30.33
2024-01-24T13:42:44.457Z,28.17
2024-01-24T13:45:11.368Z,31.40
2024-01-24T13:47:38.199Z,26.23
2024-01-24T13:50:06.196Z,64.93
2024-01-24T13:52:32.955Z,37.00
2024-01-24T13:54:59.782Z,39.45
2024-01-24T13:57:26.625Z,55.00
2024-01-24T13:59:53.301Z,55.78
2024-01-24T14:02:20.112Z,98.85
2024-01-24T14:04:46.929Z,126.45
2024-01-24T14:07:13.624Z,128.55
2024-01-24T14:09:40.872Z,96.35
2024-01-24T14:14:34.758Z,52.00
2024-01-24T14:17:01.736Z,26.60
2024-01-24T14:19:28.607Z,25.20
2024-01-24T14:21:55.583Z,37.25
2024-01-24T14:24:22.276Z,36.53
2024-01-24T14:26:49.154Z,35.70
2024-01-24T14:34:09.649Z,44.42
2024-01-24T14:36:36.632Z,38.75
2024-01-24T14:39:03.396Z,57.58
2024-01-24T14:41:29.944Z,52.83
2024-01-24T14:43:56.862Z,42.95
2024-01-24T14:46:23.519Z,50.10
2024-01-24T14:48:50.291Z,45.63
2024-01-24T14:51:16.994Z,73.05
2024-01-24T14:53:44.734Z,68.25
2024-01-24T14:56:11.312Z,56.28
2024-01-24T14:58:37.914Z,123.28
2024-01-24T15:01:05.799Z,96.65
2024-01-24T15:03:32.503Z,49.30
2024-01-24T15:05:59.068Z,86.13
2024-01-24T15:08:26.024Z,110.32
2024-01-24T15:10:52.868Z,93.75
2024-01-24T15:13:19.591Z,96.35
2024-01-24T15:15:46.220Z,130.85
2024-01-24T15:18:12.940Z,135.48
2024-01-24T15:20:45.353Z,130.77
2024-01-24T15:23:16.787Z,174.73
2024-01-24T15:25:43.387Z,253.13
2024-01-24T15:28:10.246Z,243.77
2024-01-24T15:30:36.988Z,203.38
2024-01-24T15:33:03.867Z,237.70
2024-01-24T15:35:30.559Z,162.85
2024-01-24T15:37:57.402Z,140.82
2024-01-24T15:40:24.054Z,91.43
2024-01-24T15:42:50.727Z,82.28
2024-01-24T15:45:18.063Z,63.85
2024-01-24T15:47:44.984Z,63.47
2024-01-24T15:50:11.930Z,51.88
2024-01-24T15:52:38.696Z,49.25
2024-01-24T15:55:05.758Z,106.45
2024-01-24T15:57:32.463Z,221.18
2024-01-24T15:59:59.248Z,420.33
2024-01-24T16:02:25.865Z,260.65
2024-01-24T16:04:53.359Z,184.13
2024-01-24T16:09:46.935Z,191.10
2024-01-24T16:12:13.675Z,193.25
2024-01-24T16:14:40.253Z,187.23
2024-01-24T16:17:07.763Z,216.68
2024-01-24T16:19:36.042Z,252.32
2024-01-24T16:22:02.696Z,170.95
2024-01-24T16:24:29.368Z,165.52
2024-01-24T16:26:56.007Z,176.63
2024-01-24T16:29:22.697Z,148.60
2024-01-24T16:31:49.316Z,98.60
2024-01-24T16:34:17.393Z,83.65
2024-01-24T16:36:44.214Z,84.60
2024-01-24T16:39:10.844Z,72.30
2024-01-24T16:41:37.586Z,62.88
2024-01-24T16:44:04.335Z,73.70
2024-01-24T16:46:30.940Z,78.13
2024-01-24T16:48:57.689Z,76.13
2024-01-24T16:51:25.418Z,174.15
2024-01-24T16:53:52.058Z,230.80
2024-01-24T16:56:18.699Z,304.92
2024-01-24T16:58:45.330Z,226.45
2024-01-24T17:01:12.027Z,505.50
2024-01-24T17:03:38.807Z,380.27
2024-01-24T17:06:05.893Z,312.42
2024-01-24T17:08:32.576Z,215.70
2024-01-24T17:10:59.270Z,197.55
2024-01-24T17:13:25.895Z,212.82
2024-01-24T17:15:52.552Z,155.45
2024-01-24T17:18:20.119Z,151.75
2024-01-24T17:20:46.832Z,134.38
2024-01-24T17:23:13.472Z,178.50
2024-01-24T17:25:40.308Z,133.27
2024-01-24T17:28:07.016Z,151.27
2024-01-24T17:30:33.732Z,97.07
2024-01-24T17:33:00.613Z,94.82
2024-01-24T17:35:27.405Z,134.18
2024-01-24T17:37:54.264Z,144.18
2024-01-24T17:40:21.008Z,110.57
2024-01-24T17:42:47.938Z,105.65
2024-01-24T17:45:14.885Z,96.97
2024-01-24T17:47:41.702Z,104.80
2024-01-24T17:50:08.915Z,117.80
2024-01-24T17:52:35.840Z,104.35
2024-01-24T17:55:02.587Z,105.80
2024-01-24T17:57:29.440Z,96.35
2024-01-24T17:59:56.429Z,89.97
2024-01-24T18:02:23.130Z,57.30
2024-01-24T18:04:50.031Z,50.17
2024-01-24T18:07:16.887Z,32.35
2024-01-24T18:09:43.881Z,30.08
2024-01-24T18:12:10.594Z,43.97
2024-01-24T18:14:37.276Z,39.80
2024-01-24T18:17:04.040Z,38.15
2024-01-24T18:19:30.715Z,31.33
2024-01-24T18:21:57.841Z,29.60
2024-01-24T18:24:24.576Z,29.67
2024-01-24T18:26:51.369Z,37.42
2024-01-24T18:29:19.965Z,46.60
2024-01-24T18:31:46.739Z,39.15
2024-01-24T18:34:13.657Z,38.80
2024-01-24T18:36:40.511Z,53.08
2024-01-24T18:39:07.114Z,43.60
2024-01-24T18:41:33.854Z,39.28
2024-01-24T18:44:00.483Z,68.07
2024-01-24T18:46:27.156Z,38.10
2024-01-24T18:48:54.404Z,43.72
2024-01-24T18:53:47.908Z,48.35
2024-01-24T18:56:14.593Z,48.65
2024-01-24T18:58:42.008Z,54.45
2024-01-24T19:01:08.778Z,63.65
2024-01-24T19:03:35.808Z,78.00
2024-01-24T19:06:02.597Z,79.18
2024-01-24T19:08:29.320Z,78.50
2024-01-24T19:10:56.011Z,65.43
2024-01-24T19:13:22.664Z,69.30
2024-01-24T19:15:49.454Z,56.50
2024-01-24T19:18:22.684Z,58.03
2024-01-24T19:20:51.512Z,54.22
2024-01-24T19:23:18.117Z,47.53
2024-01-24T19:25:44.738Z,55.60
2024-01-24T19:28:11.580Z,49.15
2024-01-24T19:30:38.309Z,37.50
2024-01-24T19:33:05.343Z,44.78
2024-01-24T19:35:31.982Z,47.03
2024-01-24T19:37:58.573Z,47.00
2024-01-24T19:40:25.366Z,55.35
2024-01-24T19:42:53.197Z,58.97
2024-01-24T19:45:19.850Z,28.52
2024-01-24T19:47:46.502Z,29.05
2024-01-24T19:50:13.204Z,34.70
2024-01-24T19:52:40.172Z,50.30
2024-01-24T19:55:08.195Z,73.63
2024-01-24T19:57:35.239Z,67.95
2024-01-24T20:00:01.922Z,73.95
2024-01-24T20:02:28.683Z,129.57
2024-01-24T20:04:55.403Z,120.93
2024-01-24T20:07:22.203Z,110.32
2024-01-24T20:09:49.026Z,67.10
2024-01-24T20:12:16.592Z,79.68
2024-01-24T20:14:43.304Z,76.72
2024-01-24T20:17:09.888Z,56.30
2024-01-24T20:19:36.574Z,57.95
2024-01-24T20:22:03.268Z,59.30
2024-01-24T20:24:29.924Z,65.95
2024-01-24T20:26:56.764Z,53.33
2024-01-24T20:29:23.422Z,48.40
2024-01-24T20:31:50.039Z,40.20
2024-01-24T20:34:16.968Z,50.28
2024-01-24T20:36:43.652Z,53.67
2024-01-24T20:39:10.507Z,54.28
2024-01-24T20:41:37.135Z,62.10
2024-01-24T20:44:03.703Z,74.07
2024-01-24T20:46:30.297Z,77.50
2024-01-24T20:48:57.127Z,46.63
2024-01-24T20:51:23.926Z,34.83
2024-01-24T20:53:50.578Z,37.78
2024-01-24T20:56:17.169Z,32.50
2024-01-24T20:58:43.778Z,39.40
2024-01-24T21:01:10.450Z,47.33
2024-01-24T21:03:37.662Z,41.33
2024-01-24T21:06:04.728Z,44.17
2024-01-24T21:08:31.383Z,49.47
2024-01-24T21:11:03.134Z,37.55
2024-01-24T21:13:31.010Z,52.22
2024-01-24T21:15:57.865Z,57.45
2024-01-24T21:18:24.621Z,102.72
2024-01-24T21:20:51.507Z,119.72
2024-01-24T21:23:18.344Z,128.63
2024-01-24T21:25:45.001Z,94.50
2024-01-24T21:28:11.609Z,52.80
2024-01-24T21:30:38.299Z,44.72
2024-01-24T21:33:05.018Z,42.17
2024-01-24T21:35:31.716Z,61.75
2024-01-24T21:37:58.675Z,59.35
2024-01-24T21:40:25.367Z,43.78
2024-01-24T21:42:52.224Z,47.00
2024-01-24T21:45:18.979Z,43.55
2024-01-24T21:47:45.651Z,38.78
2024-01-24T21:50:12.560Z,34.85
2024-01-24T21:52:39.233Z,32.83
2024-01-24T21:55:07.271Z,36.08
2024-01-24T21:57:34.182Z,58.40
2024-01-24T22:00:00.917Z,58.67
2024-01-24T22:02:27.569Z,77.70
2024-01-24T22:04:54.339Z,68.75
2024-01-24T22:07:21.253Z,63.55
2024-01-24T22:09:47.995Z,57.05
2024-01-24T22:12:14.610Z,69.50
2024-01-24T22:14:41.266Z,74.28
2024-01-24T22:17:07.925Z,70.35
2024-01-24T22:19:34.589Z,85.18
2024-01-24T22:22:01.210Z,96.45
2024-01-24T22:24:27.911Z,145.57
2024-01-24T22:26:54.432Z,62.58
2024-01-24T22:29:21.138Z,57.92
2024-01-24T22:31:47.724Z,52.65
2024-01-24T22:34:14.476Z,41.42
2024-01-24T22:36:41.306Z,33.38
2024-01-24T22:39:07.893Z,18.15
2024-01-24T22:41:34.561Z,31.92
2024-01-24T22:44:01.149Z,28.88
2024-01-24T22:46:27.713Z,26.80
2024-01-24T22:48:54.488Z,32.53
2024-01-24T22:51:21.293Z,27.52
2024-01-24T22:53:47.838Z,36.53
2024-01-24T22:56:14.376Z,28.63
2024-01-24T22:58:41.000Z,27.05
2024-01-24T23:01:07.760Z,27.58
2024-01-24T23:03:34.577Z,33.03
2024-01-24T23:06:01.233Z,32.28
2024-01-24T23:08:27.769Z,68.10
2024-01-24T23:10:54.416Z,68.40
2024-01-24T23:13:21.081Z,50.60
2024-01-24T23:15:47.745Z,50.33
2024-01-24T23:18:14.450Z,42.63
2024-01-24T23:20:41.147Z,33.95
2024-01-24T23:23:07.792Z,32.35
2024-01-24T23:25:34.437Z,36.90
2024-01-24T23:28:01.200Z,28.60
2024-01-24T23:30:27.953Z,40.80
2024-01-24T23:32:54.728Z,29.98
2024-01-24T23:35:21.813Z,43.05
2024-01-24T23:37:48.700Z,43.90
2024-01-24T23:40:15.497Z,43.38
2024-01-24T23:42:42.254Z,38.60
2024-01-24T23:45:09.249Z,38.03
2024-01-24T23:47:35.839Z,48.92
2024-01-24T23:50:02.698Z,50.33
2024-01-24T23:52:29.669Z,55.80
2024-01-24T23:54:56.443Z,57.17
2024-01-24T23:57:24.963Z,73.05
2024-01-24T23:59:51.674Z,126.47
